Ana Sayfa
METAR-TAF:

METAR-TAF

Havaalanları :

Clayton, New Mexico, Amerika Birleşik Devletleri

Enlem: 36-26-54N, Boylam: 103-09-11W, yükseklik: 1513 m

Güncel hava durumu gözlemi

Rapor saat 15:55 UTC de 54 dakika önce yapıldı.
Rüzgar güney/güneybatıdan 11 kt
Sıcaklık 31°C
Nem 26%
Basınç 1015 hPa
Görüş mesafesi: 16.1 km
Açık gökyüzü

METAR: KCAO 191555Z AUTO 20011KT 10SM CLR 31/09 A2998 RMK AO2 SLP065 T03110089

Saat: 10:49 (16:49 UTC)


TAF: eksik

4.000'den fazla havaalanı için hava durumu gözlemleri ve tahminleri (METAR ve TAF raporları).

Kullanılabilir istasyonlar harita üzerinde sarı ve kırmızı noktalarla gösterilir.

İstasyonun adını görmek için fareyi noktanın üzerinde gezdirin.

Sonrasında hava gözlem ve tahminlerini görmek için tıklayın.

Haritayı değiştirmek için: yaklaştırmak için siyah artı işaretli yeşil düğmeye ve uzaklaştırmak için de eksi işaretli düğmeye hızla tıklayın; bitişik haritalar için yeşil okları kullanın.


METAR-TAF: